createdAt,value
2023-04-29T00:00:21.266Z,9.80
2023-04-29T00:03:09.451Z,8.80
2023-04-29T00:05:37.610Z,9.40
2023-04-29T00:08:05.743Z,9.80
2023-04-29T00:10:33.630Z,9.60
2023-04-29T00:13:01.314Z,9.30
2023-04-29T00:15:29.035Z,8.80
2023-04-29T00:17:56.901Z,9.80
2023-04-29T00:20:24.739Z,8.90
2023-04-29T00:22:52.732Z,8.40
2023-04-29T00:25:20.755Z,8.80
2023-04-29T00:27:48.570Z,8.80
2023-04-29T00:30:16.695Z,8.70
2023-04-29T00:32:53.689Z,8.40
2023-04-29T00:35:21.822Z,8.80
2023-04-29T00:37:49.650Z,9.20
2023-04-29T00:40:17.595Z,9.70
2023-04-29T00:42:55.150Z,9.60
2023-04-29T00:45:23.153Z,9.20
2023-04-29T00:47:51.581Z,9.10
2023-04-29T00:50:19.614Z,8.90
2023-04-29T00:52:48.178Z,9.40
2023-04-29T00:55:16.331Z,8.40
2023-04-29T00:57:44.221Z,9.10
2023-04-29T01:00:12.339Z,9.00
2023-04-29T01:02:40.792Z,9.20
2023-04-29T01:05:11.208Z,8.80
2023-04-29T01:07:57.745Z,8.30
2023-04-29T01:10:28.653Z,8.30
2023-04-29T01:13:18.095Z,7.80
2023-04-29T01:15:45.858Z,8.30
2023-04-29T01:18:21.081Z,8.30
2023-04-29T01:20:48.893Z,8.60
2023-04-29T01:23:16.706Z,8.60
2023-04-29T01:25:45.260Z,8.00
2023-04-29T01:28:31.198Z,8.90
2023-04-29T01:31:09.131Z,9.10
2023-04-29T01:33:40.196Z,9.40
2023-04-29T01:36:23.691Z,10.40
2023-04-29T01:38:58.266Z,10.70
2023-04-29T01:41:34.955Z,12.40
2023-04-29T01:44:04.376Z,14.20
2023-04-29T01:46:32.397Z,14.80
2023-04-29T01:49:00.509Z,10.50
2023-04-29T01:51:29.906Z,11.40
2023-04-29T01:53:57.775Z,13.10
2023-04-29T01:56:25.565Z,14.40
2023-04-29T01:58:53.347Z,14.70
2023-04-29T02:01:21.213Z,13.90
2023-04-29T02:03:49.443Z,15.00
2023-04-29T02:06:17.276Z,13.40
2023-04-29T02:08:45.012Z,13.90
2023-04-29T02:11:12.711Z,13.00
2023-04-29T02:13:40.847Z,13.40
2023-04-29T02:16:09.818Z,13.60
2023-04-29T02:18:37.723Z,15.00
2023-04-29T02:21:05.631Z,15.10
2023-04-29T02:23:33.973Z,13.40
2023-04-29T02:26:02.093Z,13.10
2023-04-29T02:28:29.795Z,14.40
2023-04-29T02:30:57.903Z,14.50
2023-04-29T02:33:25.878Z,13.50
2023-04-29T02:35:53.705Z,13.90
2023-04-29T02:38:24.522Z,13.90
2023-04-29T02:41:12.509Z,14.70
2023-04-29T02:43:44.664Z,14.80
2023-04-29T02:46:12.651Z,13.50
2023-04-29T02:48:43.601Z,16.00
2023-04-29T02:51:14.575Z,15.10
2023-04-29T02:53:42.299Z,14.10
2023-04-29T02:56:10.065Z,11.70
2023-04-29T02:58:37.865Z,13.20
2023-04-29T03:01:05.681Z,13.90
2023-04-29T03:03:33.623Z,11.30
2023-04-29T03:06:01.778Z,10.90
2023-04-29T03:08:34.595Z,10.90
2023-04-29T03:11:02.600Z,9.60
2023-04-29T03:13:32.691Z,10.30
2023-04-29T03:16:01.855Z,11.20
2023-04-29T03:18:29.656Z,11.20
2023-04-29T03:21:00.028Z,10.90
2023-04-29T03:23:30.896Z,11.90
2023-04-29T03:25:58.812Z,11.10
2023-04-29T03:28:27.316Z,10.50
2023-04-29T03:30:56.835Z,11.80
2023-04-29T03:33:24.803Z,10.80
2023-04-29T03:35:52.591Z,10.50
2023-04-29T03:38:20.450Z,11.10
2023-04-29T03:40:48.255Z,11.30
2023-04-29T03:43:16.165Z,10.60
2023-04-29T03:45:44.041Z,11.70
2023-04-29T03:48:12.659Z,10.30
2023-04-29T03:50:40.396Z,11.70
2023-04-29T03:53:08.437Z,9.60
2023-04-29T03:55:36.336Z,9.70
2023-04-29T03:58:04.230Z,11.00
2023-04-29T04:00:32.504Z,9.60
2023-04-29T04:03:02.714Z,9.50
2023-04-29T04:05:32.286Z,9.40
2023-04-29T04:08:03.156Z,9.20
2023-04-29T04:10:31.059Z,9.90
2023-04-29T04:12:58.768Z,9.90
2023-04-29T04:15:26.791Z,9.40
2023-04-29T04:17:54.550Z,9.80
2023-04-29T04:20:22.481Z,9.10
2023-04-29T04:22:50.437Z,9.30
2023-04-29T04:25:21.089Z,9.30
2023-04-29T04:27:48.975Z,9.60
2023-04-29T04:30:16.853Z,9.30
2023-04-29T04:32:44.841Z,8.50
2023-04-29T04:35:13.169Z,8.60
2023-04-29T04:37:40.842Z,8.50
2023-04-29T04:40:09.342Z,8.50
2023-04-29T04:42:37.242Z,8.50
2023-04-29T04:45:05.508Z,9.10
2023-04-29T04:47:33.488Z,9.80
2023-04-29T04:50:01.326Z,9.30
2023-04-29T04:52:29.138Z,9.30
2023-04-29T04:54:57.224Z,8.90
2023-04-29T04:57:25.678Z,9.20
2023-04-29T04:59:53.847Z,9.00
2023-04-29T05:02:21.886Z,8.70
2023-04-29T05:04:49.832Z,9.30
2023-04-29T05:07:17.588Z,8.80
2023-04-29T05:09:48.026Z,9.20
2023-04-29T05:12:15.981Z,8.90
2023-04-29T05:14:43.788Z,8.80
2023-04-29T05:17:11.753Z,8.50
2023-04-29T05:19:39.860Z,9.40
2023-04-29T05:22:07.745Z,8.10
2023-04-29T05:24:35.664Z,8.70
2023-04-29T05:27:04.429Z,8.20
2023-04-29T05:29:32.689Z,8.70
2023-04-29T05:32:00.622Z,8.60
2023-04-29T05:34:28.354Z,8.90
2023-04-29T05:36:57.434Z,8.50
2023-04-29T05:39:26.809Z,8.30
2023-04-29T05:42:03.399Z,8.60
2023-04-29T05:44:31.271Z,9.10
2023-04-29T05:47:01.900Z,8.90
2023-04-29T05:49:29.827Z,9.00
2023-04-29T05:51:57.519Z,8.50
2023-04-29T05:54:25.263Z,9.70
2023-04-29T05:56:53.271Z,8.70
2023-04-29T05:59:21.222Z,9.10
2023-04-29T06:01:48.976Z,8.70
2023-04-29T06:04:17.034Z,8.30
2023-04-29T06:06:44.990Z,7.60
2023-04-29T06:09:26.365Z,8.20
2023-04-29T06:11:56.214Z,8.70
2023-04-29T06:14:24.227Z,8.60
2023-04-29T06:16:52.329Z,7.60
2023-04-29T06:19:20.324Z,8.70
2023-04-29T06:21:48.312Z,8.10
2023-04-29T06:24:16.178Z,8.40
2023-04-29T06:26:44.304Z,8.30
2023-04-29T06:29:12.460Z,7.90
2023-04-29T06:31:40.513Z,8.40
2023-04-29T06:34:08.490Z,8.40
2023-04-29T06:36:36.165Z,8.60
2023-04-29T06:39:04.035Z,7.50
2023-04-29T06:41:32.239Z,8.50
2023-04-29T06:44:00.040Z,7.70
2023-04-29T06:46:29.268Z,8.60
2023-04-29T06:48:57.219Z,7.60
2023-04-29T06:51:25.072Z,7.90
2023-04-29T06:53:52.842Z,7.60
2023-04-29T06:56:21.032Z,7.70
2023-04-29T06:58:49.078Z,7.30
2023-04-29T07:01:17.139Z,8.00
2023-04-29T07:03:45.296Z,8.40
2023-04-29T07:06:13.276Z,7.70
2023-04-29T07:08:41.157Z,7.40
2023-04-29T07:11:11.106Z,7.80
2023-04-29T07:13:38.804Z,8.30
2023-04-29T07:16:14.519Z,6.80
2023-04-29T07:18:42.263Z,7.90
2023-04-29T07:21:10.036Z,8.10
2023-04-29T07:23:37.796Z,8.20
2023-04-29T07:26:16.020Z,8.10
2023-04-29T07:28:44.545Z,8.10
2023-04-29T07:31:15.368Z,7.50
2023-04-29T07:33:44.485Z,8.50
2023-04-29T07:36:12.325Z,8.10
2023-04-29T07:38:40.292Z,8.00
2023-04-29T07:41:08.166Z,7.80
2023-04-29T07:43:36.444Z,7.90
2023-04-29T07:46:04.342Z,7.10
2023-04-29T07:48:36.573Z,7.70
2023-04-29T07:51:04.710Z,7.60
2023-04-29T07:53:32.840Z,7.50
2023-04-29T07:56:04.918Z,7.50
2023-04-29T07:58:32.741Z,7.30
2023-04-29T08:01:07.262Z,7.20
2023-04-29T08:03:35.942Z,6.80
2023-04-29T08:06:08.636Z,7.50
2023-04-29T08:08:36.697Z,7.30
2023-04-29T08:11:04.697Z,7.90
2023-04-29T08:13:32.464Z,7.40
2023-04-29T08:16:00.299Z,7.30
2023-04-29T08:18:28.128Z,7.50
2023-04-29T08:20:55.866Z,7.50
2023-04-29T08:23:23.626Z,8.00
2023-04-29T08:25:52.432Z,8.20
2023-04-29T08:28:20.782Z,7.00
2023-04-29T08:30:49.025Z,7.10
2023-04-29T08:33:16.761Z,7.20
2023-04-29T08:35:45.166Z,7.20
2023-04-29T08:38:13.232Z,7.10
2023-04-29T08:40:45.874Z,7.10
2023-04-29T08:43:14.036Z,7.90
2023-04-29T08:45:42.629Z,6.90
2023-04-29T08:48:10.865Z,6.70
2023-04-29T08:50:40.274Z,6.40
2023-04-29T08:53:11.711Z,6.50
2023-04-29T08:55:46.196Z,7.50
2023-04-29T08:58:14.789Z,7.00
2023-04-29T09:00:43.791Z,8.30
2023-04-29T09:03:23.194Z,7.70
2023-04-29T09:05:53.502Z,7.40
2023-04-29T09:08:24.433Z,7.20
2023-04-29T09:10:52.992Z,6.80
2023-04-29T09:13:25.448Z,7.00
2023-04-29T09:15:53.805Z,6.60
2023-04-29T09:18:40.425Z,6.10
2023-04-29T09:21:14.907Z,6.10
2023-04-29T09:23:43.282Z,7.00
2023-04-29T09:26:11.059Z,7.20
2023-04-29T09:28:41.214Z,7.10
2023-04-29T09:31:09.307Z,7.40
2023-04-29T09:33:52.162Z,8.20
2023-04-29T09:36:37.961Z,7.70
2023-04-29T09:39:11.400Z,5.90
2023-04-29T09:41:39.176Z,5.80
2023-04-29T09:44:07.492Z,6.30
2023-04-29T09:46:37.193Z,6.60
2023-04-29T09:49:25.693Z,6.10
2023-04-29T09:51:57.431Z,6.30
2023-04-29T09:54:26.377Z,5.90
2023-04-29T09:56:54.944Z,5.70
2023-04-29T09:59:23.733Z,5.40
2023-04-29T10:01:52.715Z,5.70
2023-04-29T10:04:21.379Z,5.80
2023-04-29T10:06:50.039Z,6.30
2023-04-29T10:09:18.928Z,6.30
2023-04-29T10:11:51.527Z,6.30
2023-04-29T10:14:39.815Z,5.90
2023-04-29T10:17:20.493Z,5.80
2023-04-29T10:19:54.539Z,6.90
2023-04-29T10:22:27.785Z,7.00
2023-04-29T10:24:56.498Z,8.40
2023-04-29T10:27:25.441Z,7.70
2023-04-29T10:29:53.760Z,8.10
2023-04-29T10:32:22.120Z,7.60
2023-04-29T10:34:51.980Z,8.40
2023-04-29T10:37:20.139Z,8.50
2023-04-29T10:39:47.913Z,7.70
2023-04-29T10:42:28.193Z,7.50
2023-04-29T10:45:14.747Z,7.10
2023-04-29T10:47:43.295Z,7.70
2023-04-29T10:50:11.224Z,7.80
2023-04-29T10:52:58.015Z,6.70
2023-04-29T10:55:25.955Z,7.30
2023-04-29T10:57:59.525Z,7.30
2023-04-29T11:00:28.297Z,8.10
2023-04-29T11:02:56.771Z,8.60
2023-04-29T11:05:37.042Z,9.30
2023-04-29T11:08:16.535Z,9.00
2023-04-29T11:10:44.689Z,9.30
2023-04-29T11:13:28.215Z,8.60
2023-04-29T11:16:05.583Z,8.90
2023-04-29T11:18:35.001Z,8.60
2023-04-29T11:21:06.065Z,8.90
2023-04-29T11:23:37.550Z,8.70
2023-04-29T11:26:05.378Z,9.60
2023-04-29T11:28:33.343Z,10.20
2023-04-29T11:31:01.250Z,9.90
2023-04-29T11:33:32.209Z,10.60
2023-04-29T11:36:00.520Z,11.10
2023-04-29T11:38:28.913Z,10.90
2023-04-29T11:40:57.399Z,10.50
2023-04-29T11:43:25.485Z,11.50
2023-04-29T11:45:53.802Z,10.70
2023-04-29T11:48:22.125Z,11.40
2023-04-29T11:50:51.312Z,11.40
2023-04-29T11:53:22.502Z,12.00
2023-04-29T11:55:50.275Z,11.70
2023-04-29T11:58:18.481Z,10.30
2023-04-29T12:00:47.544Z,11.40
2023-04-29T12:03:16.376Z,10.70
2023-04-29T12:05:59.707Z,10.50
2023-04-29T12:08:31.604Z,10.10
2023-04-29T12:11:00.013Z,10.60
2023-04-29T12:13:29.074Z,7.90
2023-04-29T12:15:58.533Z,7.70
2023-04-29T12:18:27.863Z,7.00
2023-04-29T12:20:56.165Z,7.40
2023-04-29T12:23:24.763Z,7.20
2023-04-29T12:25:53.896Z,8.60
2023-04-29T12:28:21.983Z,13.20
2023-04-29T12:30:51.403Z,7.90
2023-04-29T12:33:22.026Z,8.80
2023-04-29T12:35:51.078Z,6.50
2023-04-29T12:38:23.230Z,6.60
2023-04-29T12:40:51.180Z,6.60
2023-04-29T12:43:19.061Z,6.10
2023-04-29T12:45:47.040Z,6.80
2023-04-29T12:48:25.392Z,5.30
2023-04-29T12:51:00.016Z,5.30
2023-04-29T12:53:29.260Z,5.30
2023-04-29T12:55:57.692Z,5.60
2023-04-29T12:58:28.514Z,5.00
2023-04-29T13:00:56.530Z,5.20
2023-04-29T13:03:25.044Z,4.90
2023-04-29T13:05:54.787Z,5.80
2023-04-29T13:08:23.234Z,5.60
2023-04-29T13:10:51.649Z,5.80
2023-04-29T13:13:19.748Z,5.60
2023-04-29T13:15:47.657Z,5.10
2023-04-29T13:18:15.810Z,2.20
2023-04-29T13:20:43.586Z,1.20
2023-04-29T13:23:12.290Z,1.60
2023-04-29T13:25:40.213Z,1.70
2023-04-29T13:28:08.269Z,0.80
2023-04-29T13:30:36.418Z,0.70
2023-04-29T13:33:09.626Z,0.80
2023-04-29T13:35:41.954Z,0.80
2023-04-29T13:38:09.916Z,1.10
2023-04-29T13:40:40.673Z,0.90
2023-04-29T13:43:16.636Z,0.90
2023-04-29T13:45:53.141Z,0.80
2023-04-29T13:53:56.769Z,1.00
2023-04-29T13:56:41.167Z,1.00
2023-04-29T14:04:02.890Z,1.00
2023-04-29T14:06:32.703Z,0.90
2023-04-29T14:09:03.109Z,0.80
2023-04-29T14:11:36.719Z,1.00
2023-04-29T14:14:04.939Z,1.20
2023-04-29T14:16:33.189Z,1.50
2023-04-29T14:19:03.555Z,1.50
2023-04-29T14:21:33.576Z,1.80
2023-04-29T14:24:05.121Z,2.20
2023-04-29T14:26:33.112Z,2.40
2023-04-29T14:29:01.801Z,2.70
2023-04-29T14:31:38.326Z,2.90
2023-04-29T14:34:06.354Z,2.70
2023-04-29T14:36:34.167Z,2.80
2023-04-29T14:39:03.883Z,3.40
2023-04-29T14:41:31.805Z,4.30
2023-04-29T14:43:59.958Z,4.10
2023-04-29T14:46:29.106Z,3.80
2023-04-29T14:48:57.103Z,4.10
2023-04-29T14:51:25.626Z,3.90
2023-04-29T14:53:53.553Z,4.10
2023-04-29T14:56:21.517Z,4.90
2023-04-29T14:58:49.612Z,4.20
2023-04-29T15:01:17.605Z,4.50
2023-04-29T15:03:45.547Z,4.70
2023-04-29T15:06:13.511Z,4.90
2023-04-29T15:08:41.492Z,4.50
2023-04-29T15:11:09.406Z,5.00
2023-04-29T15:13:37.326Z,5.30
2023-04-29T15:16:06.596Z,5.00
2023-04-29T15:18:34.476Z,5.40
2023-04-29T15:21:02.480Z,4.80
2023-04-29T15:23:31.508Z,5.90
2023-04-29T15:25:59.448Z,5.80
2023-04-29T15:28:27.239Z,5.90
2023-04-29T15:30:55.402Z,5.50
2023-04-29T15:33:23.873Z,6.10
2023-04-29T15:35:51.743Z,5.90
2023-04-29T15:38:19.632Z,5.70
2023-04-29T15:40:47.551Z,4.60
2023-04-29T15:43:15.623Z,4.30
2023-04-29T15:45:43.406Z,3.80
2023-04-29T15:48:11.132Z,3.80
2023-04-29T15:50:38.867Z,4.20
2023-04-29T15:53:06.669Z,4.30
2023-04-29T15:55:35.506Z,3.90
2023-04-29T15:58:03.399Z,4.30
2023-04-29T16:00:31.282Z,4.30
2023-04-29T16:02:59.248Z,5.10
2023-04-29T16:05:27.096Z,6.10
2023-04-29T16:07:54.847Z,5.30
2023-04-29T16:10:22.770Z,5.40
2023-04-29T16:12:50.560Z,5.80
2023-04-29T16:15:18.693Z,7.10
2023-04-29T16:17:46.496Z,7.00
2023-04-29T16:20:14.503Z,6.70
2023-04-29T16:22:42.373Z,6.90
2023-04-29T16:25:11.453Z,6.30
2023-04-29T16:27:39.523Z,6.70
2023-04-29T16:30:07.810Z,6.40
2023-04-29T16:32:35.791Z,6.20
2023-04-29T16:35:03.685Z,7.50
2023-04-29T16:37:31.683Z,7.60
2023-04-29T16:39:59.959Z,6.80
2023-04-29T16:42:27.812Z,8.20
2023-04-29T16:44:55.656Z,8.40
2023-04-29T16:47:24.951Z,9.30
2023-04-29T16:49:53.091Z,9.50
2023-04-29T16:52:21.147Z,8.50
2023-04-29T16:54:48.853Z,9.40
2023-04-29T16:57:16.771Z,9.80
2023-04-29T16:59:44.556Z,9.50
2023-04-29T17:02:12.632Z,9.80
2023-04-29T17:04:41.051Z,10.00
2023-04-29T17:07:09.429Z,10.50
2023-04-29T17:09:37.291Z,12.20
2023-04-29T17:12:06.733Z,12.60
2023-04-29T17:14:34.378Z,12.50
2023-04-29T17:17:02.091Z,12.90
2023-04-29T17:19:29.966Z,14.40
2023-04-29T17:21:57.776Z,15.20
2023-04-29T17:24:28.514Z,15.40
2023-04-29T17:26:56.202Z,15.60
2023-04-29T17:29:23.975Z,14.90
2023-04-29T17:31:59.462Z,16.70
2023-04-29T17:34:29.920Z,15.80
2023-04-29T17:36:57.734Z,17.10
2023-04-29T17:39:25.695Z,18.10
2023-04-29T17:41:53.795Z,18.90
2023-04-29T17:44:23.370Z,19.00
2023-04-29T17:46:51.511Z,19.00
2023-04-29T17:49:19.209Z,19.10
2023-04-29T17:51:47.085Z,21.80
2023-04-29T17:54:14.836Z,22.40
2023-04-29T17:56:42.494Z,20.20
2023-04-29T17:59:11.937Z,21.60
2023-04-29T18:01:39.848Z,22.90
2023-04-29T18:04:07.838Z,23.40
2023-04-29T18:06:36.145Z,23.40
2023-04-29T18:09:04.707Z,23.30
2023-04-29T18:11:32.850Z,22.30
2023-04-29T18:14:01.156Z,21.90
2023-04-29T18:16:28.970Z,21.00
2023-04-29T18:18:57.072Z,21.90
2023-04-29T18:21:25.745Z,20.20
2023-04-29T18:23:54.130Z,18.80
2023-04-29T18:26:22.368Z,21.10
2023-04-29T18:28:50.252Z,19.30
2023-04-29T18:31:18.865Z,18.70
2023-04-29T18:33:46.793Z,19.40
2023-04-29T18:36:14.649Z,18.10
2023-04-29T18:38:43.168Z,16.10
2023-04-29T18:41:14.507Z,17.60
2023-04-29T18:43:42.396Z,17.50
2023-04-29T18:46:10.181Z,16.70
2023-04-29T18:48:40.125Z,15.60
2023-04-29T18:51:07.888Z,14.10
2023-04-29T18:53:35.744Z,13.70
2023-04-29T18:56:03.610Z,13.20
2023-04-29T18:58:31.482Z,14.50
2023-04-29T19:01:00.103Z,14.20
2023-04-29T19:03:28.110Z,13.10
2023-04-29T19:05:55.824Z,12.90
2023-04-29T19:08:24.375Z,13.50
2023-04-29T19:10:53.617Z,13.70
2023-04-29T19:13:21.516Z,13.30
2023-04-29T19:15:51.142Z,11.80
2023-04-29T19:18:20.270Z,11.50
2023-04-29T19:20:48.913Z,11.50
2023-04-29T19:23:16.817Z,11.10
2023-04-29T19:25:44.605Z,11.60
2023-04-29T19:28:12.363Z,10.80
2023-04-29T19:30:40.104Z,10.80
2023-04-29T19:33:08.596Z,10.60
2023-04-29T19:35:36.542Z,10.30
2023-04-29T19:38:04.356Z,9.00
2023-04-29T19:40:32.364Z,8.70
2023-04-29T19:43:00.129Z,9.90
2023-04-29T19:45:27.968Z,9.70
2023-04-29T19:47:55.776Z,8.90
2023-04-29T19:50:27.231Z,9.40
2023-04-29T19:52:55.279Z,10.20
2023-04-29T19:55:23.222Z,9.50
2023-04-29T19:57:53.356Z,10.10
2023-04-29T20:00:41.478Z,9.90
2023-04-29T20:03:09.359Z,11.20
2023-04-29T20:05:37.167Z,11.60
2023-04-29T20:08:05.102Z,11.10
2023-04-29T20:10:33.265Z,10.60
2023-04-29T20:13:01.133Z,10.10
2023-04-29T20:15:29.224Z,10.00
2023-04-29T20:17:57.351Z,10.50
2023-04-29T20:20:25.801Z,10.00
2023-04-29T20:22:58.049Z,10.80
2023-04-29T20:25:27.326Z,10.20
2023-04-29T20:27:55.160Z,9.30
2023-04-29T20:30:23.354Z,9.80
2023-04-29T20:32:51.219Z,9.60
2023-04-29T20:35:28.564Z,9.70
2023-04-29T20:37:57.054Z,9.20
2023-04-29T20:40:25.398Z,9.20
2023-04-29T20:42:53.189Z,8.60
2023-04-29T20:45:22.264Z,9.40
2023-04-29T20:47:50.268Z,8.20
2023-04-29T20:50:18.082Z,8.10
2023-04-29T20:52:49.179Z,8.40
2023-04-29T20:55:17.407Z,7.80
2023-04-29T20:57:45.456Z,8.00
2023-04-29T21:00:14.300Z,7.80
2023-04-29T21:02:42.185Z,8.10
2023-04-29T21:05:10.212Z,8.00
2023-04-29T21:07:38.254Z,7.70
2023-04-29T21:10:06.605Z,7.40
2023-04-29T21:12:34.419Z,7.40
2023-04-29T21:15:02.369Z,7.60
2023-04-29T21:17:30.342Z,7.40
2023-04-29T21:19:58.102Z,7.60
2023-04-29T21:22:25.935Z,7.10
2023-04-29T21:24:53.644Z,7.60
2023-04-29T21:27:21.805Z,7.00
2023-04-29T21:29:49.615Z,7.80
2023-04-29T21:32:21.667Z,6.70
2023-04-29T21:34:49.574Z,7.20
2023-04-29T21:37:17.642Z,7.20
2023-04-29T21:39:45.763Z,6.90
2023-04-29T21:42:13.972Z,6.60
2023-04-29T21:44:41.778Z,7.30
2023-04-29T21:47:09.934Z,7.70
2023-04-29T21:49:37.881Z,6.70
2023-04-29T21:52:05.682Z,7.70
2023-04-29T21:54:33.459Z,7.10
2023-04-29T21:57:01.721Z,7.50
2023-04-29T21:59:34.274Z,6.90
2023-04-29T22:02:04.139Z,7.30
2023-04-29T22:04:32.122Z,8.10
2023-04-29T22:07:02.947Z,8.70
2023-04-29T22:09:30.804Z,9.40
2023-04-29T22:11:58.563Z,9.50
2023-04-29T22:14:26.493Z,9.00
2023-04-29T22:16:54.356Z,9.60
2023-04-29T22:19:22.124Z,10.60
2023-04-29T22:21:50.113Z,11.30
2023-04-29T22:24:18.065Z,12.80
2023-04-29T22:26:46.530Z,13.90
2023-04-29T22:29:21.833Z,14.00
2023-04-29T22:31:49.829Z,13.30
2023-04-29T22:34:17.714Z,13.20
2023-04-29T22:36:45.726Z,11.40
2023-04-29T22:39:13.570Z,11.50
2023-04-29T22:41:41.639Z,12.00
2023-04-29T22:44:09.407Z,12.00
2023-04-29T22:46:37.167Z,12.60
2023-04-29T22:49:05.088Z,10.00
2023-04-29T22:51:33.033Z,10.40
2023-04-29T22:54:00.752Z,10.10
2023-04-29T22:56:29.015Z,9.00
2023-04-29T22:58:56.740Z,9.00
2023-04-29T23:01:24.898Z,9.10
2023-04-29T23:03:52.629Z,8.80
2023-04-29T23:06:21.436Z,8.50
2023-04-29T23:08:49.461Z,9.10
2023-04-29T23:11:17.138Z,8.90
2023-04-29T23:13:44.902Z,9.20
2023-04-29T23:16:12.824Z,9.40
2023-04-29T23:18:40.684Z,8.90
2023-04-29T23:21:08.463Z,9.60
2023-04-29T23:23:36.406Z,10.10
2023-04-29T23:26:04.412Z,10.00
2023-04-29T23:28:32.201Z,10.50
2023-04-29T23:31:00.276Z,10.80
2023-04-29T23:33:28.308Z,10.90
2023-04-29T23:35:56.218Z,10.20
2023-04-29T23:38:23.923Z,11.20
2023-04-29T23:40:51.620Z,10.60
2023-04-29T23:43:21.589Z,11.50
2023-04-29T23:45:49.492Z,10.00
2023-04-29T23:48:17.257Z,11.20
2023-04-29T23:50:52.207Z,10.50
2023-04-29T23:53:19.954Z,9.70
2023-04-29T23:55:48.744Z,10.30
2023-04-29T23:58:16.498Z,9.80
